Aérodrome :
LOGIN :

S'inscrire | Disclaimer

   EN    FR    IT 

 










Légende :    VFR   VFR Marginal   IFR   IFR Intensif   IFR Très Intensif
Visi : 
Plafond : 
>= 8 km
>= 3000ft
5 à 8 km
1000 à 3000 ft
1500m à 5 km
500 à 1000 ft
800 à 1500m
200 à 500 ft
< 800m
< 200 ft
Symboles :   Orages  Brouillard  Fortes neiges  Fortes précipitations  Vent > 20 kt
SIGMETs :   Divers  Orages  Givrage  Turbulence  Onde Orograph.  Cendres Volcan.






- Altitude de l'aérodrome : 302 ft
- Code IATA : CGN


EDDK - Cologne Bonn

DERNIER METAR :
  • 211250Z 13007KT 090V160 CAVOK 07/03 Q1007 NOSIG

METARs EXPIRÉS :
  • 211220Z 13008KT 090V160 CAVOK 06/02 Q1008 NOSIG
  • 211150Z 14009KT CAVOK 06/02 Q1008 NOSIG
  • 211120Z 14008KT 100V160 CAVOK 04/02 Q1008 NOSIG
  • 211050Z 13008KT 090V170 CAVOK 04/01 Q1009 NOSIG
  • 211020Z 12006KT 080V150 CAVOK 03/01 Q1009 NOSIG

TAF TAF EDDK
Valide du 21 à 12h jusqu'au 22 à 18h UTC


211100Z 2112/2218 12006KT CAVOK
BECMG 2208/2211 13011KT



MET'MAP, la Météo Aéronautique d'un coup d'oeil ! - Copyright ORBIFLY Décembre 2007 - Disclaimer

ORBIFLY MET'MAP TEAM :

Programmation & Développement : Alexandra Zaïnal
Conception & Développement : Baudouin d'Aumeries
Co-Programmation & Développement : Marc-Olivier Méhu
Soutien technique & logistique : Manuel Goepfert

Contact : metmap@orbifly.com




SOURCES & CREDITS :

   NOAA